Main page
METAR-TAF:

METAR-TAF

Airports :

Land's End Airport

Land's End, England

latitude: 50-06-10N, longitude: 005-40-14W, elevation: 122 m

Current weather observation

The report was made 15 hours and 32 minutes ago, at 13:50 UTC
Wind 11 kt from the Southwest
Temperature 17°C
Humidity 100%
Pressure 1011 hPa
Visibility: 0050 m
fog

METAR: EGHC 181350Z 23011KT 0050 FG VV/// 17/17 Q1011

Time: 06:22 (05:22 UTC)

Forecast

The report was made 15 hours and 20 minutes ago, at 14:02 UTC
Forecast valid from 18 at 15 UTC to 18 at 18 UTC
Wind 14 kt from the South/Southwest
Visibility: 5000 m
Scattered clouds at a height of 600 ft
mist
Probability 30% :
Temporary
from 18 at 15 UTC to 18 at 18 UTC
Visibility: 0300 m
fog

TAF: EGHC 181402Z 1815/1818 21014KT 5000 BR SCT006 PROB30 TEMPO 1815/1818 0300 FG VV///

Weather observations and forecasts of more than 4000 airports (METAR and TAF reports).

The available stations are represented by yellow and red dots on the map.

Hover mouse over dot to see the name of the station.

Then click to see weather observations and forecasts.

To change the map : click on the green buttons with a black cross to zoom in, on the green button with a dash to zoom out, or on the green arrows for adjacent maps.


METAR-TAF: